createdAt,value
2022-09-09T00:00:50.075Z,1.52
2022-09-09T00:03:21.007Z,1.75
2022-09-09T00:05:57.234Z,1.60
2022-09-09T00:08:32.469Z,1.63
2022-09-09T00:11:02.697Z,1.40
2022-09-09T00:13:34.358Z,1.42
2022-09-09T00:16:04.267Z,1.80
2022-09-09T00:18:38.800Z,1.60
2022-09-09T00:21:10.465Z,1.45
2022-09-09T00:23:41.364Z,1.33
2022-09-09T00:26:12.308Z,1.50
2022-09-09T00:28:42.904Z,1.50
2022-09-09T00:31:14.939Z,1.58
2022-09-09T00:33:43.940Z,1.27
2022-09-09T00:36:16.687Z,1.77
2022-09-09T00:38:47.101Z,1.55
2022-09-09T00:41:20.137Z,1.38
2022-09-09T00:43:53.281Z,1.55
2022-09-09T00:46:42.265Z,1.95
2022-09-09T00:49:17.387Z,1.70
2022-09-09T00:51:53.295Z,1.75
2022-09-09T00:54:28.611Z,1.45
2022-09-09T00:57:01.373Z,1.60
2022-09-09T00:59:37.303Z,1.50
2022-09-09T01:02:10.704Z,1.88
2022-09-09T01:04:39.491Z,1.67
2022-09-09T01:07:14.185Z,1.60
2022-09-09T01:09:48.836Z,1.80
2022-09-09T01:12:18.437Z,1.10
2022-09-09T01:14:51.620Z,1.20
2022-09-09T01:17:23.284Z,1.52
2022-09-09T01:20:09.560Z,1.70
2022-09-09T01:22:41.744Z,1.90
2022-09-09T01:25:27.821Z,1.50
2022-09-09T01:27:58.921Z,1.85
2022-09-09T01:30:28.260Z,1.80
2022-09-09T01:32:59.380Z,1.95
2022-09-09T01:35:32.763Z,1.92
2022-09-09T01:38:01.108Z,1.63
2022-09-09T01:40:29.455Z,1.67
2022-09-09T01:42:59.437Z,1.50
2022-09-09T01:45:27.904Z,1.40
2022-09-09T01:47:57.120Z,1.70
2022-09-09T01:50:26.053Z,1.70
2022-09-09T01:52:57.654Z,1.67
2022-09-09T01:55:30.968Z,1.75
2022-09-09T01:58:05.104Z,1.42
2022-09-09T02:00:34.906Z,1.50
2022-09-09T02:03:08.301Z,1.70
2022-09-09T02:05:38.813Z,1.92
2022-09-09T02:08:09.049Z,2.00
2022-09-09T02:10:41.156Z,1.73
2022-09-09T02:13:13.100Z,1.60
2022-09-09T02:15:43.150Z,2.65
2022-09-09T02:18:13.381Z,1.92
2022-09-09T02:20:42.020Z,1.63
2022-09-09T02:23:11.644Z,1.90
2022-09-09T02:25:40.385Z,1.95
2022-09-09T02:28:11.264Z,1.60
2022-09-09T02:30:42.039Z,1.73
2022-09-09T02:33:11.555Z,1.52
2022-09-09T02:35:40.757Z,1.83
2022-09-09T02:38:11.500Z,2.13
2022-09-09T02:40:39.821Z,2.30
2022-09-09T02:43:08.489Z,1.90
2022-09-09T02:45:39.600Z,1.95
2022-09-09T02:48:13.316Z,1.60
2022-09-09T02:50:45.955Z,2.17
2022-09-09T02:53:18.860Z,2.00
2022-09-09T02:55:49.589Z,2.00
2022-09-09T02:58:19.530Z,2.40
2022-09-09T03:00:49.250Z,1.92
2022-09-09T03:03:20.556Z,1.70
2022-09-09T03:05:49.019Z,1.65
2022-09-09T03:08:18.105Z,1.77
2022-09-09T03:10:46.496Z,2.10
2022-09-09T03:13:16.188Z,1.92
2022-09-09T03:15:44.763Z,2.10
2022-09-09T03:18:13.128Z,1.98
2022-09-09T03:20:44.084Z,2.03
2022-09-09T03:23:15.869Z,2.00
2022-09-09T03:25:49.223Z,2.13
2022-09-09T03:28:17.573Z,1.92
2022-09-09T03:30:45.933Z,1.90
2022-09-09T03:33:16.000Z,2.03
2022-09-09T03:35:49.712Z,2.10
2022-09-09T03:38:18.135Z,2.30
2022-09-09T03:40:52.200Z,2.30
2022-09-09T03:43:20.830Z,1.90
2022-09-09T03:45:49.519Z,1.77
2022-09-09T03:48:18.376Z,2.10
2022-09-09T03:50:47.583Z,1.80
2022-09-09T03:53:18.562Z,1.98
2022-09-09T03:55:47.521Z,1.73
2022-09-09T03:58:16.005Z,1.83
2022-09-09T04:00:46.057Z,2.00
2022-09-09T04:03:14.832Z,2.30
2022-09-09T04:05:43.371Z,2.35
2022-09-09T04:08:12.442Z,2.20
2022-09-09T04:10:42.961Z,2.28
2022-09-09T04:13:12.540Z,1.75
2022-09-09T04:15:40.834Z,2.03
2022-09-09T04:18:09.152Z,1.92
2022-09-09T04:20:37.676Z,2.03
2022-09-09T04:23:06.310Z,1.70
2022-09-09T04:25:34.926Z,1.70
2022-09-09T04:28:04.889Z,1.88
2022-09-09T04:30:33.205Z,2.28
2022-09-09T04:33:01.532Z,2.20
2022-09-09T04:35:29.914Z,2.00
2022-09-09T04:37:58.270Z,2.13
2022-09-09T04:40:26.909Z,2.13
2022-09-09T04:42:55.213Z,2.15
2022-09-09T04:45:24.948Z,1.90
2022-09-09T04:47:53.694Z,2.08
2022-09-09T04:50:22.169Z,2.10
2022-09-09T04:52:50.509Z,1.75
2022-09-09T04:55:19.084Z,1.85
2022-09-09T04:57:47.385Z,1.73
2022-09-09T05:00:16.404Z,1.45
2022-09-09T05:02:46.125Z,1.95
2022-09-09T05:05:14.428Z,1.33
2022-09-09T05:07:42.725Z,1.60
2022-09-09T05:10:11.495Z,1.48
2022-09-09T05:12:39.793Z,1.40
2022-09-09T05:15:08.646Z,1.45
2022-09-09T05:17:37.059Z,1.45
2022-09-09T05:20:09.922Z,1.30
2022-09-09T05:22:39.599Z,1.80
2022-09-09T05:25:08.769Z,1.48
2022-09-09T05:27:37.267Z,1.50
2022-09-09T05:30:05.949Z,1.60
2022-09-09T05:32:35.175Z,1.30
2022-09-09T05:35:03.813Z,1.63
2022-09-09T05:37:33.592Z,1.65
2022-09-09T05:40:02.009Z,1.42
2022-09-09T05:42:33.496Z,1.50
2022-09-09T05:45:01.847Z,1.30
2022-09-09T05:47:30.171Z,1.58
2022-09-09T05:49:58.548Z,1.30
2022-09-09T05:52:28.162Z,1.38
2022-09-09T05:54:58.045Z,1.60
2022-09-09T05:57:26.507Z,1.70
2022-09-09T05:59:55.542Z,1.40
2022-09-09T06:02:23.953Z,1.45
2022-09-09T06:04:52.750Z,1.50
2022-09-09T06:07:21.042Z,1.48
2022-09-09T06:09:49.432Z,1.52
2022-09-09T06:12:19.241Z,1.33
2022-09-09T06:14:47.553Z,1.50
2022-09-09T06:17:15.863Z,1.27
2022-09-09T06:19:44.193Z,1.55
2022-09-09T06:22:13.098Z,1.70
2022-09-09T06:24:41.540Z,1.63
2022-09-09T06:27:09.874Z,1.23
2022-09-09T06:29:39.596Z,1.40
2022-09-09T06:32:09.545Z,1.83
2022-09-09T06:34:38.062Z,1.30
2022-09-09T06:37:07.614Z,1.25
2022-09-09T06:39:36.162Z,1.45
2022-09-09T06:42:05.073Z,1.42
2022-09-09T06:44:35.535Z,1.42
2022-09-09T06:47:06.116Z,1.80
2022-09-09T06:49:36.006Z,1.23
2022-09-09T06:52:04.450Z,1.60
2022-09-09T06:54:32.771Z,1.40
2022-09-09T06:57:11.189Z,1.17
2022-09-09T06:59:49.418Z,1.30
2022-09-09T07:02:19.376Z,1.55
2022-09-09T07:04:47.784Z,1.65
2022-09-09T07:07:16.579Z,1.20
2022-09-09T07:09:46.279Z,1.33
2022-09-09T07:12:15.187Z,1.10
2022-09-09T07:14:43.516Z,1.25
2022-09-09T07:17:11.885Z,1.63
2022-09-09T07:19:41.666Z,1.50
2022-09-09T07:22:11.519Z,1.10
2022-09-09T07:24:39.893Z,1.27
2022-09-09T07:27:08.322Z,1.20
2022-09-09T07:29:36.713Z,1.17
2022-09-09T07:32:05.388Z,0.80
2022-09-09T07:34:33.752Z,0.98
2022-09-09T07:37:03.637Z,1.13
2022-09-09T07:39:32.013Z,1.15
2022-09-09T07:42:00.441Z,1.00
2022-09-09T07:44:28.986Z,0.85
2022-09-09T07:46:57.459Z,0.68
2022-09-09T07:49:30.993Z,0.80
2022-09-09T07:52:01.241Z,0.95
2022-09-09T07:54:33.021Z,1.20
2022-09-09T07:57:01.423Z,0.88
2022-09-09T07:59:31.381Z,0.88
2022-09-09T08:01:59.747Z,1.00
2022-09-09T08:04:29.136Z,0.80
2022-09-09T08:06:58.455Z,1.20
2022-09-09T08:09:29.686Z,0.80
2022-09-09T08:11:59.725Z,0.63
2022-09-09T08:14:28.440Z,0.98
2022-09-09T08:16:58.191Z,0.80
2022-09-09T08:19:26.547Z,1.08
2022-09-09T08:21:55.127Z,0.90
2022-09-09T08:24:24.144Z,1.00
2022-09-09T08:26:52.491Z,0.90
2022-09-09T08:29:22.673Z,0.80
2022-09-09T08:31:52.174Z,0.90
2022-09-09T08:34:21.614Z,0.93
2022-09-09T08:36:50.505Z,1.08
2022-09-09T08:39:19.907Z,1.77
2022-09-09T08:42:07.647Z,0.90
2022-09-09T08:44:48.124Z,1.10
2022-09-09T08:47:22.309Z,0.80
2022-09-09T08:50:01.404Z,1.15
2022-09-09T08:52:31.839Z,0.90
2022-09-09T08:55:01.832Z,0.82
2022-09-09T08:57:32.091Z,1.08
2022-09-09T09:00:01.831Z,0.90
2022-09-09T09:02:34.752Z,1.35
2022-09-09T09:05:10.996Z,0.95
2022-09-09T09:07:45.142Z,1.02
2022-09-09T09:10:40.044Z,1.10
2022-09-09T09:13:10.660Z,0.95
2022-09-09T09:15:41.222Z,1.17
2022-09-09T09:18:11.241Z,0.90
2022-09-09T09:20:45.560Z,1.00
2022-09-09T09:23:19.013Z,1.08
2022-09-09T09:25:47.538Z,1.10
2022-09-09T09:28:19.195Z,1.20
2022-09-09T09:30:53.555Z,1.05
2022-09-09T09:33:23.764Z,1.08
2022-09-09T09:35:52.536Z,1.00
2022-09-09T09:41:11.595Z,1.20
2022-09-09T09:43:43.433Z,1.10
2022-09-09T09:46:24.516Z,1.00
2022-09-09T09:48:59.152Z,1.20
2022-09-09T09:51:28.045Z,1.20
2022-09-09T09:53:57.190Z,0.80
2022-09-09T09:56:30.713Z,0.90
2022-09-09T09:58:59.692Z,1.40
2022-09-09T10:01:30.853Z,0.98
2022-09-09T10:04:00.651Z,1.08
2022-09-09T10:06:33.373Z,1.23
2022-09-09T10:09:02.519Z,0.98
2022-09-09T10:11:41.552Z,1.45
2022-09-09T10:14:16.036Z,1.00
2022-09-09T10:16:53.382Z,1.20
2022-09-09T10:19:23.785Z,1.00
2022-09-09T10:21:58.937Z,1.00
2022-09-09T10:24:37.425Z,1.20
2022-09-09T10:27:08.623Z,1.50
2022-09-09T10:29:48.041Z,1.52
2022-09-09T10:32:28.490Z,1.10
2022-09-09T10:34:59.069Z,1.13
2022-09-09T10:37:36.392Z,1.10
2022-09-09T10:40:07.946Z,1.00
2022-09-09T10:42:37.404Z,1.10
2022-09-09T10:45:13.363Z,1.23
2022-09-09T10:47:51.038Z,1.02
2022-09-09T10:50:57.167Z,1.10
2022-09-09T10:53:21.665Z,1.13
2022-09-09T10:55:54.231Z,1.10
2022-09-09T10:58:24.886Z,1.25
2022-09-09T11:00:58.277Z,1.02
2022-09-09T11:03:30.302Z,1.17
2022-09-09T11:06:00.831Z,1.00
2022-09-09T11:08:30.624Z,1.55
2022-09-09T11:11:01.733Z,1.40
2022-09-09T11:13:33.743Z,1.25
2022-09-09T11:16:04.121Z,1.95
2022-09-09T11:18:35.352Z,0.98
2022-09-09T11:21:05.109Z,1.20
2022-09-09T11:23:41.948Z,1.08
2022-09-09T11:26:13.961Z,0.93
2022-09-09T11:28:52.207Z,1.23
2022-09-09T11:31:27.376Z,1.40
2022-09-09T11:34:09.445Z,1.30
2022-09-09T11:36:53.918Z,0.93
2022-09-09T11:39:37.199Z,1.00
2022-09-09T11:42:09.141Z,1.40
2022-09-09T11:47:07.011Z,1.00
2022-09-09T11:49:44.393Z,1.08
2022-09-09T11:52:15.996Z,1.05
2022-09-09T11:54:50.094Z,1.10
2022-09-09T11:57:26.892Z,0.80
2022-09-09T11:59:56.123Z,1.02
2022-09-09T12:02:26.934Z,1.00
2022-09-09T12:05:01.660Z,1.15
2022-09-09T12:07:34.991Z,0.90
2022-09-09T12:10:06.329Z,1.10
2022-09-09T12:12:36.787Z,1.00
2022-09-09T12:15:21.862Z,0.98
2022-09-09T12:17:52.517Z,1.15
2022-09-09T12:20:23.505Z,0.93
2022-09-09T12:23:02.515Z,1.00
2022-09-09T12:25:36.456Z,0.77
2022-09-09T12:28:07.610Z,0.98
2022-09-09T12:30:39.101Z,0.68
2022-09-09T12:33:13.757Z,0.85
2022-09-09T12:35:46.221Z,1.02
2022-09-09T12:38:17.048Z,0.80
2022-09-09T12:40:45.370Z,1.08
2022-09-09T12:43:22.304Z,1.10
2022-09-09T12:45:57.528Z,1.08
2022-09-09T12:48:29.531Z,0.90
2022-09-09T12:50:59.364Z,0.93
2022-09-09T12:53:29.272Z,1.10
2022-09-09T12:55:59.592Z,1.05
2022-09-09T12:58:29.371Z,1.40
2022-09-09T13:00:58.496Z,1.10
2022-09-09T13:03:27.218Z,1.23
2022-09-09T13:05:56.529Z,1.00
2022-09-09T13:08:27.802Z,1.02
2022-09-09T13:11:02.480Z,0.98
2022-09-09T13:13:32.343Z,1.10
2022-09-09T13:16:01.499Z,1.20
2022-09-09T13:18:31.529Z,0.82
2022-09-09T13:21:00.020Z,0.98
2022-09-09T13:23:31.108Z,1.23
2022-09-09T13:26:01.086Z,1.67
2022-09-09T13:28:33.859Z,1.45
2022-09-09T13:31:04.174Z,1.23
2022-09-09T13:33:34.287Z,1.10
2022-09-09T13:36:05.082Z,1.08
2022-09-09T13:38:35.633Z,0.98
2022-09-09T13:41:05.527Z,1.30
2022-09-09T13:43:34.773Z,0.80
2022-09-09T13:46:04.634Z,1.08
2022-09-09T13:48:33.380Z,0.98
2022-09-09T13:51:06.840Z,0.77
2022-09-09T13:53:36.900Z,1.60
2022-09-09T13:56:05.273Z,0.90
2022-09-09T13:58:33.615Z,0.95
2022-09-09T14:01:02.792Z,0.98
2022-09-09T14:03:34.892Z,1.80
2022-09-09T14:06:03.449Z,0.80
2022-09-09T14:08:38.245Z,0.82
2022-09-09T14:11:08.450Z,0.80
2022-09-09T14:13:38.491Z,1.08
2022-09-09T14:16:07.109Z,1.02
2022-09-09T14:18:35.594Z,1.25
2022-09-09T14:21:04.451Z,0.85
2022-09-09T14:23:33.355Z,1.10
2022-09-09T14:26:02.056Z,1.00
2022-09-09T14:29:01.999Z,1.02
2022-09-09T14:31:20.154Z,1.05
2022-09-09T14:33:48.629Z,0.85
2022-09-09T14:36:17.099Z,0.90
2022-09-09T14:38:45.538Z,0.90
2022-09-09T14:41:14.715Z,0.85
2022-09-09T14:43:44.475Z,0.80
2022-09-09T14:46:13.350Z,1.25
2022-09-09T14:48:41.885Z,1.05
2022-09-09T14:51:11.025Z,0.95
2022-09-09T14:53:39.567Z,0.90
2022-09-09T14:56:09.328Z,1.00
2022-09-09T14:58:38.917Z,1.30
2022-09-09T15:01:11.057Z,0.93
2022-09-09T15:03:39.732Z,0.90
2022-09-09T15:06:09.541Z,1.00
2022-09-09T15:08:42.289Z,0.93
2022-09-09T15:11:12.015Z,1.00
2022-09-09T15:13:41.119Z,0.88
2022-09-09T15:16:11.887Z,0.85
2022-09-09T15:18:43.688Z,0.95
2022-09-09T15:21:12.509Z,1.02
2022-09-09T15:23:41.082Z,0.90
2022-09-09T15:26:09.532Z,0.57
2022-09-09T15:28:39.322Z,1.00
2022-09-09T15:31:10.986Z,0.75
2022-09-09T15:33:44.742Z,0.90
2022-09-09T15:36:17.028Z,0.90
2022-09-09T15:38:45.525Z,1.00
2022-09-09T15:41:14.396Z,1.10
2022-09-09T15:43:46.820Z,1.25
2022-09-09T15:46:29.454Z,0.75
2022-09-09T15:49:02.862Z,1.33
2022-09-09T15:51:42.241Z,0.60
2022-09-09T15:54:13.307Z,0.85
2022-09-09T15:56:42.077Z,0.85
2022-09-09T15:59:11.218Z,0.85
2022-09-09T16:01:52.309Z,0.68
2022-09-09T16:04:24.399Z,0.73
2022-09-09T16:06:54.681Z,0.60
2022-09-09T16:10:07.889Z,0.70
2022-09-09T16:16:06.522Z,0.75
2022-09-09T16:18:38.793Z,0.88
2022-09-09T16:21:09.283Z,0.98
2022-09-09T16:23:37.931Z,0.60
2022-09-09T16:26:06.421Z,0.63
2022-09-09T16:28:34.799Z,1.00
2022-09-09T16:31:06.701Z,0.73
2022-09-09T16:33:35.333Z,0.73
2022-09-09T16:36:09.509Z,0.80
2022-09-09T16:38:37.925Z,0.60
2022-09-09T16:41:07.365Z,0.90
2022-09-09T16:43:36.948Z,0.70
2022-09-09T16:46:05.591Z,0.65
2022-09-09T16:48:34.605Z,0.80
2022-09-09T16:51:07.318Z,0.90
2022-09-09T16:53:37.181Z,0.85
2022-09-09T16:56:08.312Z,0.88
2022-09-09T16:58:37.628Z,0.98
2022-09-09T17:01:06.685Z,0.77
2022-09-09T17:03:35.328Z,0.95
2022-09-09T17:06:03.956Z,0.75
2022-09-09T17:08:34.339Z,0.95
2022-09-09T17:11:05.331Z,0.85
2022-09-09T17:13:35.104Z,0.93
2022-09-09T17:16:06.826Z,1.30
2022-09-09T17:18:35.247Z,1.40
2022-09-09T17:21:05.706Z,1.15
2022-09-09T17:23:34.246Z,1.00
2022-09-09T17:26:04.049Z,0.82
2022-09-09T17:28:32.405Z,1.23
2022-09-09T17:31:02.314Z,1.15
2022-09-09T17:33:39.273Z,1.00
2022-09-09T17:36:12.166Z,0.90
2022-09-09T17:38:40.892Z,1.00
2022-09-09T17:41:11.633Z,1.30
2022-09-09T17:43:40.240Z,1.35
2022-09-09T17:46:09.575Z,0.88
2022-09-09T17:48:39.029Z,1.08
2022-09-09T17:51:08.847Z,1.10
2022-09-09T17:53:40.040Z,0.90
2022-09-09T17:56:09.886Z,1.08
2022-09-09T17:58:40.049Z,0.95
2022-09-09T18:01:15.944Z,1.10
2022-09-09T18:03:45.735Z,1.67
2022-09-09T18:06:16.188Z,0.88
2022-09-09T18:08:45.769Z,1.00
2022-09-09T18:11:14.308Z,0.98
2022-09-09T18:13:44.045Z,1.50
2022-09-09T18:16:13.103Z,0.73
2022-09-09T18:18:41.785Z,1.38
2022-09-09T18:21:10.779Z,1.25
2022-09-09T18:23:41.384Z,1.00
2022-09-09T18:26:12.037Z,0.90
2022-09-09T18:28:40.594Z,0.70
2022-09-09T18:31:11.477Z,0.90
2022-09-09T18:33:42.005Z,0.90
2022-09-09T18:36:11.596Z,1.00
2022-09-09T18:38:40.945Z,0.98
2022-09-09T18:41:16.732Z,0.98
2022-09-09T18:43:45.440Z,1.08
2022-09-09T18:46:16.220Z,0.80
2022-09-09T18:48:45.766Z,0.90
2022-09-09T18:51:16.222Z,0.77
2022-09-09T18:53:45.208Z,0.95
2022-09-09T18:56:14.747Z,0.80
2022-09-09T18:58:44.066Z,0.90
2022-09-09T19:01:13.511Z,1.10
2022-09-09T19:03:43.547Z,1.05
2022-09-09T19:06:13.691Z,1.83
2022-09-09T19:08:43.298Z,1.38
2022-09-09T19:11:16.553Z,1.25
2022-09-09T19:13:52.223Z,1.23
2022-09-09T19:16:23.121Z,1.40
2022-09-09T19:18:54.514Z,1.00
2022-09-09T19:21:24.744Z,0.98
2022-09-09T19:23:57.529Z,0.80
2022-09-09T19:29:48.490Z,1.13
2022-09-09T19:35:09.149Z,0.70
2022-09-09T19:37:37.844Z,0.85
2022-09-09T19:40:11.364Z,0.80
2022-09-09T19:42:40.730Z,1.23
2022-09-09T19:45:11.194Z,1.30
2022-09-09T19:47:40.690Z,1.30
2022-09-09T19:50:11.006Z,1.42
2022-09-09T19:52:43.408Z,1.13
2022-09-09T19:55:13.085Z,1.35
2022-09-09T19:57:43.185Z,1.45
2022-09-09T20:00:12.806Z,1.05
2022-09-09T20:02:57.984Z,1.05
2022-09-09T20:05:34.480Z,1.33
2022-09-09T20:08:03.243Z,1.00
2022-09-09T20:10:32.757Z,1.50
2022-09-09T20:13:01.711Z,1.50
2022-09-09T20:15:30.561Z,1.00
2022-09-09T20:17:59.528Z,0.85
2022-09-09T20:20:31.123Z,0.93
2022-09-09T20:23:01.313Z,0.80
2022-09-09T20:25:30.404Z,0.63
2022-09-09T20:27:59.295Z,0.98
2022-09-09T20:30:28.128Z,0.80
2022-09-09T20:32:57.135Z,0.80
2022-09-09T20:35:26.188Z,0.70
2022-09-09T20:37:54.655Z,0.80
2022-09-09T20:40:29.299Z,0.70
2022-09-09T20:43:01.685Z,0.80
2022-09-09T20:45:30.151Z,0.70
2022-09-09T20:47:59.705Z,1.10
2022-09-09T20:50:28.502Z,0.98
2022-09-09T20:52:57.325Z,1.10
2022-09-09T20:55:27.442Z,1.40
2022-09-09T20:57:58.774Z,1.00
2022-09-09T21:00:30.057Z,1.25
2022-09-09T21:02:58.501Z,1.15
2022-09-09T21:05:27.869Z,0.90
2022-09-09T21:07:56.817Z,1.10
2022-09-09T21:10:27.638Z,0.82
2022-09-09T21:12:56.531Z,0.70
2022-09-09T21:15:25.046Z,0.50
2022-09-09T21:17:54.462Z,0.80
2022-09-09T21:20:23.872Z,0.70
2022-09-09T21:22:54.945Z,0.90
2022-09-09T21:25:32.820Z,1.08
2022-09-09T21:28:03.994Z,0.60
2022-09-09T21:30:40.604Z,0.80
2022-09-09T21:33:13.208Z,0.70
2022-09-09T21:35:43.179Z,0.75
2022-09-09T21:38:13.931Z,0.80
2022-09-09T21:40:42.637Z,1.33
2022-09-09T21:43:13.661Z,0.68
2022-09-09T21:45:43.791Z,1.00
2022-09-09T21:48:13.201Z,0.90
2022-09-09T21:50:42.060Z,1.02
2022-09-09T21:53:11.426Z,0.90
2022-09-09T21:55:40.887Z,0.70
2022-09-09T21:58:09.622Z,0.80
2022-09-09T22:00:42.316Z,0.82
2022-09-09T22:03:11.080Z,0.90
2022-09-09T22:05:42.545Z,0.60
2022-09-09T22:08:11.490Z,0.77
2022-09-09T22:10:40.622Z,0.88
2022-09-09T22:13:09.360Z,0.90
2022-09-09T22:15:42.147Z,1.00
2022-09-09T22:18:11.056Z,0.90
2022-09-09T22:20:42.560Z,1.10
2022-09-09T22:23:11.330Z,0.90
2022-09-09T22:25:40.358Z,0.70
2022-09-09T22:28:12.018Z,0.95
2022-09-09T22:30:48.328Z,1.10
2022-09-09T22:33:16.893Z,1.10
2022-09-09T22:35:52.032Z,1.25
2022-09-09T22:38:20.731Z,0.93
2022-09-09T22:40:49.113Z,0.90
2022-09-09T22:43:19.378Z,1.23
2022-09-09T22:45:50.541Z,1.00
2022-09-09T22:48:19.217Z,1.02
2022-09-09T22:50:48.123Z,1.40
2022-09-09T22:53:17.453Z,1.10
2022-09-09T22:55:58.173Z,0.88
2022-09-09T22:58:26.762Z,0.80
2022-09-09T23:00:59.195Z,0.82
2022-09-09T23:03:27.781Z,0.88
2022-09-09T23:05:57.542Z,1.02
2022-09-09T23:08:27.571Z,0.75
2022-09-09T23:10:56.043Z,1.23
2022-09-09T23:13:25.403Z,1.05
2022-09-09T23:15:55.169Z,0.70
2022-09-09T23:18:26.849Z,0.80
2022-09-09T23:21:00.626Z,0.68
2022-09-09T23:23:30.135Z,0.90
2022-09-09T23:25:59.762Z,0.70
2022-09-09T23:28:28.422Z,0.70
2022-09-09T23:30:57.226Z,0.88
2022-09-09T23:33:27.386Z,0.90
2022-09-09T23:36:02.331Z,0.80
2022-09-09T23:38:34.615Z,1.00
2022-09-09T23:41:03.683Z,0.90
2022-09-09T23:43:35.146Z,0.80
2022-09-09T23:46:04.029Z,0.80
2022-09-09T23:48:35.868Z,0.93
2022-09-09T23:51:04.519Z,0.50
2022-09-09T23:53:32.950Z,0.80
2022-09-09T23:56:01.537Z,0.68
2022-09-09T23:58:32.693Z,0.90
